< < Back
Terminal Aerodrome Forecast


Current Version              Previous Versions:   1  2  3  4  5  6  7  8  9  

Terminal Aerodrome Forecast

549
FTUS42 KFFC 050522
TAFCSG
TAF
KCSG 050522Z 0506/0606 08003KT P6SM SKC
     FM050700 00000KT P6SM SKC
     FM051500 12006KT P6SM SKC
     FM060300 00000KT P6SM FEW250=

Latest METAR

053
SAUS70 KWBC 060900
MTRCSG
METAR KCSG 060851Z AUTO 00000KT 10SM CLR 15/12 A3018 RMK AO2 SLP215
T01500117 56007


USA.gov is the U.S. government's official web portal to all federal, state and local government web resources and services.